Buckingham, Iowa
Current Conditions -  °F | °C
As of 3:54 PM on Friday 24 Oct 2014 (Local Time) from KALO Reporting Station
Haze Haze  
Wind Chill: 59°   Ceiling: 500
Heat Index: 59°   Visibility: 3mi
Dew Point: 59°   Wind: 9mph
Humidity: 100%   Direction: 200°SSW
Pressure: 29.89"   Gusts: NA
Location:  42.26°N, 92.45°W
Report Text: KALO 242054Z 20008KT 3SM BR OVC005 15/15 A2989 RMK AO2 SLP122 60002 T01500150 57002
Loading
Personal Weather Stations






























Interactive Weather Map
Tropical Storm Tracking
New forecast layout! Learn more

10-Day Weather Forecast

Advertisements
Track Severe Weather on mobile